createdAt,value
2019-05-19T00:00:12.294Z,32.30
2019-05-19T00:05:16.588Z,28.47
2019-05-19T00:10:31.775Z,28.80
2019-05-19T00:15:41.929Z,32.50
2019-05-19T00:21:04.370Z,31.07
2019-05-19T00:26:10.123Z,29.90
2019-05-19T00:31:16.766Z,30.27
2019-05-19T00:36:30.530Z,40.70
2019-05-19T00:41:39.726Z,37.63
2019-05-19T00:46:48.097Z,32.53
2019-05-19T00:51:53.024Z,28.37
2019-05-19T00:57:00.910Z,28.17
2019-05-19T01:02:05.199Z,31.03
2019-05-19T01:07:09.320Z,28.80
2019-05-19T01:12:23.140Z,29.80
2019-05-19T01:17:30.036Z,28.43
2019-05-19T01:22:36.928Z,28.37
2019-05-19T01:27:44.071Z,28.20
2019-05-19T01:32:50.503Z,26.60
2019-05-19T01:38:02.748Z,28.47
2019-05-19T01:43:07.143Z,24.80
2019-05-19T01:48:20.559Z,25.47
2019-05-19T01:53:27.487Z,25.97
2019-05-19T01:58:44.251Z,26.53
2019-05-19T02:03:56.996Z,31.03
2019-05-19T02:09:08.312Z,26.13
2019-05-19T02:14:17.106Z,28.33
2019-05-19T02:19:24.360Z,30.07
2019-05-19T02:24:28.406Z,34.27
2019-05-19T02:29:34.116Z,27.47
2019-05-19T02:34:40.148Z,26.03
2019-05-19T02:39:45.356Z,30.03
2019-05-19T02:44:50.582Z,31.23
2019-05-19T02:49:56.399Z,31.70
2019-05-19T02:55:01.235Z,30.00
2019-05-19T03:00:06.730Z,27.10
2019-05-19T03:05:13.319Z,28.73
2019-05-19T03:10:20.368Z,30.10
2019-05-19T03:15:24.516Z,30.70
2019-05-19T03:20:28.409Z,31.77
2019-05-19T03:25:32.515Z,30.87
2019-05-19T03:30:45.391Z,32.37
2019-05-19T03:35:49.440Z,30.87
2019-05-19T03:40:53.391Z,28.90
2019-05-19T03:46:00.331Z,29.80
2019-05-19T03:51:04.151Z,27.10
2019-05-19T03:56:08.176Z,25.47
2019-05-19T04:01:12.390Z,27.47
2019-05-19T04:06:18.941Z,26.57
2019-05-19T04:11:27.419Z,28.37
2019-05-19T04:16:31.319Z,23.77
2019-05-19T04:21:48.166Z,24.33
2019-05-19T04:26:41.757Z,25.20
2019-05-19T04:31:46.191Z,23.90
2019-05-19T04:36:53.543Z,22.10
2019-05-19T04:41:57.252Z,27.57
2019-05-19T04:47:01.351Z,23.93
2019-05-19T04:52:07.071Z,26.03
2019-05-19T04:57:10.619Z,25.73
2019-05-19T05:02:14.418Z,23.87
2019-05-19T05:07:18.126Z,20.57
2019-05-19T05:12:21.885Z,22.37
2019-05-19T05:17:25.619Z,24.50
2019-05-19T05:22:29.581Z,20.13
2019-05-19T05:27:33.588Z,21.67
2019-05-19T05:32:37.304Z,20.80
2019-05-19T05:37:41.252Z,17.73
2019-05-19T05:42:44.910Z,18.37
2019-05-19T05:47:48.596Z,18.33
2019-05-19T05:52:52.338Z,18.40
2019-05-19T05:57:56.049Z,17.13
2019-05-19T06:02:59.713Z,18.50
2019-05-19T06:08:03.631Z,18.53
2019-05-19T06:13:07.305Z,15.97
2019-05-19T06:18:11.259Z,17.27
2019-05-19T06:23:14.973Z,13.67
2019-05-19T06:28:18.655Z,14.90
2019-05-19T06:33:22.377Z,13.97
2019-05-19T06:38:26.057Z,14.57
2019-05-19T06:43:29.971Z,12.87
2019-05-19T06:48:33.878Z,13.97
2019-05-19T06:53:37.566Z,10.73
2019-05-19T06:58:41.254Z,13.53
2019-05-19T07:03:44.936Z,9.53
2019-05-19T07:08:48.594Z,9.43
2019-05-19T07:13:52.266Z,10.43
2019-05-19T07:18:55.970Z,8.50
2019-05-19T07:23:59.637Z,9.43
2019-05-19T07:29:03.784Z,9.27
2019-05-19T07:34:07.451Z,7.73
2019-05-19T07:39:11.191Z,7.73
2019-05-19T07:44:14.849Z,8.53
2019-05-19T07:49:18.516Z,7.90
2019-05-19T07:54:22.280Z,11.50
2019-05-19T07:59:25.942Z,8.90
2019-05-19T08:04:29.614Z,10.45
2019-05-19T08:09:33.269Z,7.92
2019-05-19T08:14:36.925Z,9.05
2019-05-19T08:19:40.603Z,9.90
2019-05-19T08:24:44.289Z,8.75
2019-05-19T08:29:47.986Z,8.48
2019-05-19T08:34:51.693Z,9.25
2019-05-19T08:39:55.596Z,9.35
2019-05-19T08:44:59.355Z,8.73
2019-05-19T08:50:03.242Z,10.05
2019-05-19T08:55:07.152Z,8.73
2019-05-19T09:00:11.179Z,8.73
2019-05-19T09:05:15.054Z,8.78
2019-05-19T09:10:18.838Z,7.30
2019-05-19T09:15:22.621Z,8.90
2019-05-19T09:20:26.349Z,9.13
2019-05-19T09:25:30.018Z,8.15
2019-05-19T09:30:33.687Z,7.83
2019-05-19T09:35:37.600Z,7.03
2019-05-19T09:40:41.406Z,6.55
2019-05-19T09:45:45.519Z,7.17
2019-05-19T09:50:49.371Z,6.58
2019-05-19T09:55:53.177Z,6.22
2019-05-19T10:00:57.063Z,5.62
2019-05-19T10:06:00.739Z,6.85
2019-05-19T10:11:41.442Z,5.62
2019-05-19T10:16:45.154Z,7.72
2019-05-19T10:21:49.070Z,5.97
2019-05-19T10:26:52.895Z,5.87
2019-05-19T10:31:56.573Z,7.90
2019-05-19T10:37:00.700Z,5.37
2019-05-19T10:42:04.451Z,6.45
2019-05-19T10:47:08.136Z,8.08
2019-05-19T10:52:11.815Z,5.35
2019-05-19T10:57:15.740Z,6.70
2019-05-19T11:02:19.549Z,5.33
2019-05-19T11:07:23.238Z,6.10
2019-05-19T11:12:26.910Z,6.50
2019-05-19T11:17:30.819Z,9.75
2019-05-19T11:22:34.481Z,6.05
2019-05-19T11:27:38.377Z,5.42
2019-05-19T11:32:42.060Z,6.15
2019-05-19T11:37:45.712Z,5.60
2019-05-19T11:42:49.699Z,6.50
2019-05-19T11:47:53.422Z,5.75
2019-05-19T11:52:57.483Z,5.80
2019-05-19T11:58:01.205Z,4.90
2019-05-19T12:03:04.938Z,4.42
2019-05-19T12:08:08.651Z,5.55
2019-05-19T12:13:12.396Z,4.15
2019-05-19T12:18:16.138Z,5.92
2019-05-19T12:23:20.134Z,6.08
2019-05-19T12:28:24.067Z,4.35
2019-05-19T12:33:27.855Z,4.58
2019-05-19T12:38:31.588Z,4.42
2019-05-19T12:43:35.570Z,6.08
2019-05-19T12:48:39.396Z,5.03
2019-05-19T12:53:43.416Z,4.55
2019-05-19T12:58:47.160Z,3.65
2019-05-19T13:03:50.905Z,3.80
2019-05-19T13:08:54.955Z,3.70
2019-05-19T13:13:59.830Z,3.02
2019-05-19T13:19:03.781Z,5.42
2019-05-19T13:24:07.767Z,3.25
2019-05-19T13:29:14.332Z,4.53
2019-05-19T13:34:18.405Z,3.85
2019-05-19T13:39:22.549Z,4.10
2019-05-19T13:44:31.546Z,6.35
2019-05-19T13:49:38.938Z,3.15
2019-05-19T13:54:44.205Z,3.27
2019-05-19T13:59:51.673Z,2.77
2019-05-19T14:04:56.912Z,2.40
2019-05-19T14:10:04.790Z,2.98
2019-05-19T14:15:13.492Z,2.83
2019-05-19T14:20:20.606Z,2.60
2019-05-19T14:26:34.131Z,2.55
2019-05-19T14:33:20.835Z,3.05
2019-05-19T14:45:48.753Z,2.87
2019-05-19T14:51:41.979Z,2.55
2019-05-19T14:57:45.275Z,4.40
2019-05-19T15:09:12.031Z,4.85
2019-05-19T15:28:00.135Z,2.92
2019-05-19T15:57:14.844Z,3.67
2019-05-19T16:03:09.141Z,3.02
2019-05-19T16:09:11.441Z,3.33
2019-05-19T16:15:39.200Z,2.87
2019-05-19T16:27:38.874Z,3.83
2019-05-19T16:52:23.284Z,4.00
2019-05-19T16:58:28.299Z,3.05
2019-05-19T17:03:26.181Z,4.10
2019-05-19T17:08:34.058Z,3.65
2019-05-19T17:19:45.804Z,4.33
2019-05-19T17:25:05.366Z,4.62
2019-05-19T17:30:20.873Z,5.42
2019-05-19T17:35:34.237Z,6.53
2019-05-19T17:40:39.829Z,4.15
2019-05-19T17:45:43.909Z,5.95
2019-05-19T17:50:48.092Z,3.77
2019-05-19T17:55:54.342Z,4.90
2019-05-19T18:01:33.850Z,4.10
2019-05-19T18:06:31.939Z,4.55
2019-05-19T18:11:37.009Z,4.60
2019-05-19T18:18:07.620Z,5.65
2019-05-19T18:23:13.162Z,5.72
2019-05-19T18:28:24.180Z,9.73
2019-05-19T18:33:31.176Z,17.35
2019-05-19T18:38:36.815Z,17.25
2019-05-19T18:43:40.546Z,5.53
2019-05-19T18:48:44.296Z,13.03
2019-05-19T18:53:48.764Z,13.70
2019-05-19T18:58:52.909Z,9.65
2019-05-19T19:03:57.976Z,7.58
2019-05-19T19:09:03.892Z,7.35
2019-05-19T19:14:07.901Z,5.60
2019-05-19T19:19:11.681Z,4.95
2019-05-19T19:24:16.353Z,3.92
2019-05-19T19:29:20.141Z,4.17
2019-05-19T19:34:23.877Z,5.45
2019-05-19T19:39:27.794Z,4.53
2019-05-19T19:44:31.522Z,4.53
2019-05-19T19:49:35.793Z,4.12
2019-05-19T19:54:42.450Z,3.98
2019-05-19T19:59:47.651Z,4.30
2019-05-19T20:04:51.480Z,8.78
2019-05-19T20:09:55.461Z,5.22
2019-05-19T20:14:59.442Z,7.10
2019-05-19T20:20:05.043Z,4.97
2019-05-19T20:25:10.738Z,6.42
2019-05-19T20:30:14.609Z,6.83
2019-05-19T20:35:18.420Z,5.75
2019-05-19T20:40:22.678Z,7.72
2019-05-19T20:45:28.212Z,9.90
2019-05-19T20:50:31.905Z,11.35
2019-05-19T20:55:35.616Z,11.08
2019-05-19T21:00:50.098Z,8.00
2019-05-19T21:05:45.159Z,10.18
2019-05-19T21:10:49.066Z,8.78
2019-05-19T21:15:52.865Z,10.23
2019-05-19T21:20:56.586Z,8.93
2019-05-19T21:26:00.302Z,8.25
2019-05-19T21:31:06.216Z,7.92
2019-05-19T21:36:10.082Z,11.83
2019-05-19T21:41:13.938Z,7.50
2019-05-19T21:46:17.709Z,6.73
2019-05-19T21:51:21.566Z,6.63
2019-05-19T21:56:25.554Z,7.23
2019-05-19T22:01:29.257Z,6.70
2019-05-19T22:06:34.593Z,8.43
2019-05-19T22:11:45.883Z,7.87
2019-05-19T22:16:49.917Z,9.47
2019-05-19T22:21:53.661Z,6.67
2019-05-19T22:26:57.386Z,8.27
2019-05-19T22:32:03.583Z,7.43
2019-05-19T22:37:07.654Z,7.67
2019-05-19T22:42:11.743Z,8.10
2019-05-19T22:47:16.041Z,8.40
2019-05-19T22:52:19.852Z,7.70
2019-05-19T22:57:23.814Z,7.30
2019-05-19T23:02:27.533Z,8.73
2019-05-19T23:07:31.454Z,10.70
2019-05-19T23:12:35.454Z,7.73
2019-05-19T23:17:39.361Z,11.50
2019-05-19T23:22:43.538Z,10.17
2019-05-19T23:27:47.245Z,8.77
2019-05-19T23:32:51.262Z,6.83
2019-05-19T23:37:55.036Z,7.97
2019-05-19T23:42:58.714Z,6.90
2019-05-19T23:48:02.398Z,8.37
2019-05-19T23:53:06.316Z,7.43
2019-05-19T23:58:10.223Z,8.37
